createdAt,value
2022-08-22T00:01:46.108Z,1.35
2022-08-22T00:02:54.355Z,2.67
2022-08-22T00:02:54.798Z,1.75
2022-08-22T00:02:58.278Z,1.40
2022-08-22T00:03:11.074Z,1.00
2022-08-22T00:03:16.195Z,1.60
2022-08-22T00:04:41.571Z,1.27
2022-08-22T00:07:13.753Z,1.42
2022-08-22T00:09:55.642Z,1.00
2022-08-22T00:12:32.061Z,1.30
2022-08-22T00:15:06.702Z,1.30
2022-08-22T00:17:48.625Z,1.20
2022-08-22T00:20:18.118Z,1.35
2022-08-22T00:23:05.254Z,1.10
2022-08-22T00:26:13.057Z,2.85
2022-08-22T00:28:46.968Z,1.20
2022-08-22T00:31:26.316Z,1.30
2022-08-22T00:34:11.650Z,1.30
2022-08-22T00:36:52.082Z,1.30
2022-08-22T00:39:28.644Z,1.20
2022-08-22T00:42:29.412Z,1.20
2022-08-22T00:45:28.104Z,1.05
2022-08-22T00:48:15.081Z,1.50
2022-08-22T00:50:52.309Z,1.10
2022-08-22T00:53:37.344Z,1.80
2022-08-22T00:56:33.562Z,1.23
2022-08-22T00:59:23.001Z,2.42
2022-08-22T01:01:56.396Z,1.10
2022-08-22T01:04:45.045Z,1.77
2022-08-22T01:07:29.148Z,1.30
2022-08-22T01:10:14.573Z,1.17
2022-08-22T01:12:43.740Z,1.10
2022-08-22T01:15:15.426Z,1.42
2022-08-22T01:17:54.489Z,1.30
2022-08-22T01:20:54.472Z,1.95
2022-08-22T01:23:51.108Z,1.17
2022-08-22T01:27:05.231Z,1.73
2022-08-22T01:29:59.871Z,1.23
2022-08-22T01:32:32.341Z,1.10
2022-08-22T01:35:03.416Z,1.73
2022-08-22T01:37:57.730Z,1.30
2022-08-22T01:40:53.843Z,1.55
2022-08-22T01:44:00.118Z,1.48
2022-08-22T01:46:49.504Z,1.45
2022-08-22T01:49:34.999Z,1.23
2022-08-22T01:52:11.674Z,1.80
2022-08-22T01:54:54.770Z,1.48
2022-08-22T01:57:23.263Z,1.80
2022-08-22T01:59:57.642Z,1.38
2022-08-22T02:02:48.992Z,1.48
2022-08-22T02:05:37.155Z,1.75
2022-08-22T02:08:19.097Z,1.38
2022-08-22T02:11:32.892Z,1.20
2022-08-22T02:14:23.884Z,1.40
2022-08-22T02:16:57.794Z,1.50
2022-08-22T02:19:47.473Z,1.60
2022-08-22T02:22:44.804Z,1.35
2022-08-22T02:25:19.342Z,1.30
2022-08-22T02:28:08.323Z,1.20
2022-08-22T02:30:50.408Z,1.27
2022-08-22T02:33:34.326Z,1.23
2022-08-22T02:36:20.805Z,1.60
2022-08-22T02:39:25.512Z,1.33
2022-08-22T02:42:24.740Z,1.40
2022-08-22T02:45:30.020Z,1.30
2022-08-22T02:48:05.022Z,1.20
2022-08-22T02:50:34.410Z,1.73
2022-08-22T02:53:09.999Z,1.50
2022-08-22T02:55:47.415Z,1.50
2022-08-22T02:58:29.233Z,1.50
2022-08-22T03:00:58.612Z,1.50
2022-08-22T03:03:28.884Z,1.23
2022-08-22T03:06:01.025Z,1.70
2022-08-22T03:09:03.316Z,1.65
2022-08-22T03:11:33.165Z,1.40
2022-08-22T03:14:02.572Z,1.27
2022-08-22T03:16:35.943Z,1.13
2022-08-22T03:19:18.575Z,1.58
2022-08-22T03:21:55.532Z,1.42
2022-08-22T03:24:38.992Z,1.58
2022-08-22T03:27:35.052Z,1.52
2022-08-22T03:30:09.970Z,1.80
2022-08-22T03:32:51.774Z,1.30
2022-08-22T03:35:32.269Z,1.60
2022-08-22T03:38:23.766Z,1.10
2022-08-22T03:41:01.931Z,1.58
2022-08-22T03:44:16.562Z,1.65
2022-08-22T03:47:21.940Z,1.42
2022-08-22T03:49:59.661Z,1.52
2022-08-22T03:53:04.328Z,1.30
2022-08-22T03:55:52.333Z,1.35
2022-08-22T03:58:46.729Z,1.38
2022-08-22T04:01:37.985Z,1.67
2022-08-22T04:04:07.505Z,1.35
2022-08-22T04:06:56.272Z,1.80
2022-08-22T04:09:45.152Z,1.80
2022-08-22T04:12:24.101Z,1.30
2022-08-22T04:14:56.310Z,1.70
2022-08-22T04:17:28.744Z,1.30
2022-08-22T04:20:21.126Z,1.60
2022-08-22T04:22:59.820Z,1.92
2022-08-22T04:25:40.545Z,1.92
2022-08-22T04:28:22.157Z,1.50
2022-08-22T04:31:08.520Z,1.70
2022-08-22T04:34:07.001Z,1.70
2022-08-22T04:36:45.891Z,1.70
2022-08-22T04:39:21.225Z,1.80
2022-08-22T04:42:00.704Z,1.40
2022-08-22T04:44:57.584Z,1.38
2022-08-22T04:47:37.842Z,1.55
2022-08-22T04:50:16.508Z,1.58
2022-08-22T04:53:14.917Z,1.92
2022-08-22T04:56:19.641Z,1.92
2022-08-22T04:59:08.814Z,1.80
2022-08-22T05:01:47.878Z,1.98
2022-08-22T05:04:26.690Z,1.80
2022-08-22T05:07:02.709Z,1.80
2022-08-22T05:09:33.643Z,1.48
2022-08-22T05:12:14.372Z,2.38
2022-08-22T05:14:54.496Z,1.75
2022-08-22T05:17:25.325Z,2.30
2022-08-22T05:19:55.507Z,2.17
2022-08-22T05:22:29.175Z,1.80
2022-08-22T05:25:05.174Z,1.80
2022-08-22T05:27:41.887Z,2.35
2022-08-22T05:30:16.460Z,2.50
2022-08-22T05:33:03.798Z,2.28
2022-08-22T05:35:37.768Z,2.13
2022-08-22T05:38:08.026Z,2.17
2022-08-22T05:40:37.877Z,2.80
2022-08-22T05:43:06.487Z,2.55
2022-08-22T05:45:35.177Z,2.25
2022-08-22T05:48:08.751Z,2.65
2022-08-22T05:50:50.986Z,3.03
2022-08-22T05:53:35.670Z,2.88
2022-08-22T05:56:11.937Z,3.60
2022-08-22T05:59:03.901Z,3.83
2022-08-22T06:01:49.456Z,2.70
2022-08-22T06:04:31.446Z,3.22
2022-08-22T06:07:33.161Z,2.90
2022-08-22T06:10:12.109Z,3.00
2022-08-22T06:12:47.031Z,2.95
2022-08-22T06:15:20.795Z,2.30
2022-08-22T06:17:51.384Z,2.20
2022-08-22T06:20:25.675Z,3.33
2022-08-22T06:22:59.924Z,2.85
2022-08-22T06:25:32.371Z,2.15
2022-08-22T06:28:04.543Z,2.33
2022-08-22T06:30:32.205Z,2.73
2022-08-22T06:33:05.221Z,2.85
2022-08-22T06:38:34.289Z,2.38
2022-08-22T06:41:06.665Z,2.55
2022-08-22T06:43:43.396Z,2.60
2022-08-22T06:46:13.045Z,2.25
2022-08-22T06:48:41.165Z,2.50
2022-08-22T06:51:08.756Z,2.80
2022-08-22T06:53:48.055Z,1.65
2022-08-22T06:56:25.322Z,2.45
2022-08-22T06:58:58.903Z,2.35
2022-08-22T07:01:30.562Z,2.75
2022-08-22T07:04:08.989Z,2.85
2022-08-22T07:06:39.182Z,2.25
2022-08-22T07:09:07.012Z,2.58
2022-08-22T07:11:39.334Z,2.25
2022-08-22T07:14:11.118Z,2.20
2022-08-22T07:16:42.547Z,2.22
2022-08-22T07:19:13.304Z,2.35
2022-08-22T07:21:46.229Z,2.25
2022-08-22T07:24:22.107Z,3.83
2022-08-22T07:27:13.921Z,2.40
2022-08-22T07:30:03.965Z,2.10
2022-08-22T07:32:55.538Z,2.20
2022-08-22T07:35:26.893Z,2.83
2022-08-22T07:37:56.964Z,3.08
2022-08-22T07:40:31.884Z,3.30
2022-08-22T07:43:35.884Z,3.47
2022-08-22T07:46:27.296Z,3.20
2022-08-22T07:49:22.122Z,2.63
2022-08-22T07:51:53.797Z,2.88
2022-08-22T07:54:36.632Z,3.50
2022-08-22T07:57:07.809Z,3.75
2022-08-22T07:59:38.536Z,3.10
2022-08-22T08:02:11.385Z,3.03
2022-08-22T08:04:40.757Z,3.20
2022-08-22T08:07:10.477Z,3.08
2022-08-22T08:09:42.800Z,2.97
2022-08-22T08:12:11.704Z,3.05
2022-08-22T08:14:42.151Z,3.13
2022-08-22T08:17:22.589Z,3.83
2022-08-22T08:19:50.745Z,3.80
2022-08-22T08:22:22.873Z,2.80
2022-08-22T08:24:50.716Z,2.83
2022-08-22T08:27:41.184Z,3.67
2022-08-22T08:30:15.688Z,3.53
2022-08-22T08:32:47.478Z,3.00
2022-08-22T08:36:01.941Z,3.30
2022-08-22T08:38:32.073Z,3.30
2022-08-22T08:41:22.745Z,3.47
2022-08-22T08:44:04.309Z,3.50
2022-08-22T08:46:55.442Z,3.65
2022-08-22T08:49:50.465Z,3.08
2022-08-22T08:52:52.556Z,2.72
2022-08-22T08:55:38.462Z,3.28
2022-08-22T08:58:40.372Z,3.67
2022-08-22T09:01:39.559Z,3.05
2022-08-22T09:04:24.397Z,3.33
2022-08-22T09:07:36.409Z,3.85
2022-08-22T09:10:18.954Z,3.45
2022-08-22T09:13:24.381Z,3.20
2022-08-22T09:16:16.642Z,3.25
2022-08-22T09:19:35.800Z,3.03
2022-08-22T09:22:17.476Z,3.95
2022-08-22T09:24:53.862Z,3.97
2022-08-22T09:27:38.346Z,4.13
2022-08-22T09:30:05.474Z,3.78
2022-08-22T09:32:44.375Z,3.67
2022-08-22T09:35:24.105Z,3.22
2022-08-22T09:37:53.589Z,3.63
2022-08-22T09:40:48.733Z,3.90
2022-08-22T09:43:19.836Z,3.92
2022-08-22T09:45:57.526Z,4.47
2022-08-22T09:49:00.352Z,3.67
2022-08-22T09:52:05.242Z,4.15
2022-08-22T09:54:48.500Z,4.20
2022-08-22T09:57:22.957Z,3.63
2022-08-22T10:00:14.956Z,3.55
2022-08-22T10:03:12.152Z,4.35
2022-08-22T10:05:52.228Z,3.50
2022-08-22T10:08:39.263Z,4.40
2022-08-22T10:11:28.810Z,3.90
2022-08-22T10:14:01.915Z,4.45
2022-08-22T10:16:49.719Z,3.75
2022-08-22T10:19:28.768Z,4.28
2022-08-22T10:22:15.283Z,3.13
2022-08-22T10:24:54.390Z,2.95
2022-08-22T10:28:03.870Z,3.25
2022-08-22T10:30:55.001Z,3.92
2022-08-22T10:33:36.949Z,3.85
2022-08-22T10:36:13.685Z,3.22
2022-08-22T10:38:47.058Z,3.65
2022-08-22T10:41:50.774Z,3.05
2022-08-22T10:46:56.367Z,3.60
2022-08-22T10:49:34.564Z,3.08
2022-08-22T10:52:18.712Z,2.92
2022-08-22T10:55:01.278Z,2.92
2022-08-22T10:57:52.812Z,3.35
2022-08-22T11:00:34.889Z,3.38
2022-08-22T11:03:28.092Z,3.05
2022-08-22T11:06:00.098Z,2.92
2022-08-22T11:09:13.407Z,2.90
2022-08-22T11:11:45.504Z,3.13
2022-08-22T11:14:50.842Z,2.97
2022-08-22T11:20:27.177Z,3.25
2022-08-22T11:23:26.966Z,3.00
2022-08-22T11:26:38.237Z,2.83
2022-08-22T11:29:44.399Z,2.53
2022-08-22T11:32:30.143Z,2.70
2022-08-22T11:35:28.796Z,3.65
2022-08-22T11:38:14.155Z,2.80
2022-08-22T11:40:55.806Z,2.67
2022-08-22T11:43:39.149Z,3.20
2022-08-22T11:49:17.105Z,3.40
2022-08-22T11:52:07.468Z,4.15
2022-08-22T11:54:53.969Z,2.70
2022-08-22T11:57:55.901Z,3.50
2022-08-22T12:00:44.305Z,2.33
2022-08-22T12:03:26.168Z,2.67
2022-08-22T12:06:12.192Z,2.22
2022-08-22T12:08:43.381Z,2.35
2022-08-22T12:11:22.226Z,2.85
2022-08-22T12:14:02.364Z,3.40
2022-08-22T12:17:26.258Z,2.97
2022-08-22T12:20:34.255Z,2.45
2022-08-22T12:23:21.429Z,2.58
2022-08-22T12:26:35.978Z,2.60
2022-08-22T12:29:27.596Z,2.50
2022-08-22T12:32:10.058Z,2.38
2022-08-22T12:34:48.108Z,2.95
2022-08-22T12:37:15.601Z,2.30
2022-08-22T12:39:54.869Z,2.65
2022-08-22T12:42:41.873Z,2.42
2022-08-22T12:45:18.504Z,2.90
2022-08-22T12:48:15.835Z,2.67
2022-08-22T12:50:50.879Z,2.42
2022-08-22T12:53:35.956Z,2.78
2022-08-22T12:56:24.813Z,2.72
2022-08-22T12:59:07.447Z,3.40
2022-08-22T13:01:44.771Z,2.70
2022-08-22T13:04:32.775Z,2.75
2022-08-22T13:07:22.601Z,2.40
2022-08-22T13:09:57.924Z,2.70
2022-08-22T13:12:40.786Z,2.42
2022-08-22T13:15:31.669Z,2.70
2022-08-22T13:18:13.513Z,2.22
2022-08-22T13:20:51.208Z,2.88
2022-08-22T13:23:25.908Z,2.75
2022-08-22T13:26:08.162Z,3.15
2022-08-22T13:28:56.773Z,2.30
2022-08-22T13:31:38.689Z,2.78
2022-08-22T13:34:10.285Z,1.98
2022-08-22T13:36:51.933Z,1.92
2022-08-22T13:39:28.076Z,2.60
2022-08-22T13:42:00.936Z,2.20
2022-08-22T13:47:14.287Z,2.08
2022-08-22T13:49:49.116Z,2.08
2022-08-22T13:52:29.749Z,1.95
2022-08-22T13:55:12.584Z,2.22
2022-08-22T13:57:54.753Z,2.97
2022-08-22T14:00:57.342Z,3.20
2022-08-22T14:03:56.664Z,2.50
2022-08-22T14:06:36.873Z,2.80
2022-08-22T14:09:31.198Z,2.20
2022-08-22T14:12:11.971Z,3.10
2022-08-22T14:14:42.516Z,2.17
2022-08-22T14:17:17.451Z,2.15
2022-08-22T14:19:59.616Z,2.33
2022-08-22T14:22:34.803Z,2.17
2022-08-22T14:25:09.021Z,2.10
2022-08-22T14:27:58.143Z,2.20
2022-08-22T14:30:29.493Z,2.20
2022-08-22T14:33:06.605Z,2.00
2022-08-22T14:35:40.577Z,2.03
2022-08-22T14:38:30.172Z,2.00
2022-08-22T14:41:09.986Z,1.83
2022-08-22T14:43:49.618Z,2.10
2022-08-22T14:46:23.628Z,2.17
2022-08-22T14:48:55.893Z,2.30
2022-08-22T14:51:25.327Z,2.35
2022-08-22T14:53:52.852Z,2.20
2022-08-22T14:56:23.773Z,2.33
2022-08-22T14:58:53.027Z,2.58
2022-08-22T15:01:22.817Z,2.45
2022-08-22T15:04:08.717Z,1.95
2022-08-22T15:06:48.229Z,2.17
2022-08-22T15:09:33.053Z,2.08
2022-08-22T15:12:01.995Z,2.05
2022-08-22T15:14:36.130Z,2.17
2022-08-22T15:17:08.371Z,2.35
2022-08-22T15:19:44.415Z,2.30
2022-08-22T15:22:18.860Z,2.47
2022-08-22T15:25:06.582Z,2.17
2022-08-22T15:27:46.114Z,2.10
2022-08-22T15:30:20.622Z,2.67
2022-08-22T15:32:48.881Z,2.38
2022-08-22T15:35:31.192Z,2.05
2022-08-22T15:38:04.465Z,4.00
2022-08-22T15:40:43.724Z,2.88
2022-08-22T15:43:36.414Z,1.70
2022-08-22T15:46:17.969Z,2.00
2022-08-22T15:49:06.277Z,1.83
2022-08-22T15:51:44.591Z,1.80
2022-08-22T15:54:24.686Z,2.10
2022-08-22T15:56:51.950Z,2.33
2022-08-22T15:59:53.596Z,2.10
2022-08-22T16:02:23.240Z,2.40
2022-08-22T16:04:56.740Z,1.83
2022-08-22T16:07:44.421Z,3.10
2022-08-22T16:10:20.192Z,1.98
2022-08-22T16:13:11.795Z,2.03
2022-08-22T16:15:56.401Z,2.30
2022-08-22T16:18:36.925Z,2.00
2022-08-22T16:21:08.838Z,1.70
2022-08-22T16:23:56.501Z,2.40
2022-08-22T16:26:29.096Z,1.85
2022-08-22T16:29:14.713Z,1.85
2022-08-22T16:31:44.296Z,1.80
2022-08-22T16:34:16.831Z,2.35
2022-08-22T16:37:07.974Z,2.03
2022-08-22T16:39:37.111Z,1.90
2022-08-22T16:42:12.394Z,2.25
2022-08-22T16:44:41.795Z,1.40
2022-08-22T16:47:13.693Z,2.15
2022-08-22T16:49:49.213Z,2.50
2022-08-22T16:52:22.148Z,2.30
2022-08-22T16:54:51.440Z,2.22
2022-08-22T16:57:24.126Z,1.98
2022-08-22T17:00:11.965Z,2.25
2022-08-22T17:03:06.912Z,2.30
2022-08-22T17:05:39.136Z,2.13
2022-08-22T17:08:11.532Z,2.15
2022-08-22T17:10:44.590Z,2.13
2022-08-22T17:13:26.585Z,1.80
2022-08-22T17:16:01.929Z,2.60
2022-08-22T17:18:34.475Z,2.30
2022-08-22T17:21:11.768Z,2.30
2022-08-22T17:23:54.723Z,2.20
2022-08-22T17:26:54.262Z,2.28
2022-08-22T17:30:02.437Z,2.00
2022-08-22T17:32:58.255Z,1.85
2022-08-22T17:35:54.807Z,2.10
2022-08-22T17:38:46.326Z,1.83
2022-08-22T17:41:57.453Z,2.08
2022-08-22T17:44:32.124Z,2.08
2022-08-22T17:47:15.074Z,1.75
2022-08-22T17:49:41.569Z,2.20
2022-08-22T17:52:27.832Z,2.05
2022-08-22T17:55:06.584Z,2.25
2022-08-22T17:57:38.138Z,2.33
2022-08-22T18:00:09.549Z,2.30
2022-08-22T18:02:44.088Z,2.50
2022-08-22T18:05:16.737Z,2.10
2022-08-22T18:07:57.814Z,2.55
2022-08-22T18:10:38.227Z,2.05
2022-08-22T18:13:15.497Z,1.92
2022-08-22T18:15:53.412Z,1.75
2022-08-22T18:18:33.453Z,2.72
2022-08-22T18:21:21.375Z,2.00
2022-08-22T18:23:54.790Z,2.17
2022-08-22T18:26:27.243Z,2.28
2022-08-22T18:32:15.508Z,2.67
2022-08-22T18:35:15.037Z,2.70
2022-08-22T18:38:00.040Z,2.40
2022-08-22T18:40:49.802Z,2.25
2022-08-22T18:43:24.022Z,2.17
2022-08-22T18:45:50.712Z,2.58
2022-08-22T18:48:29.369Z,2.70
2022-08-22T18:51:17.435Z,3.47
2022-08-22T18:53:51.054Z,4.13
2022-08-22T18:56:35.149Z,4.18
2022-08-22T18:59:22.172Z,2.97
2022-08-22T19:02:05.326Z,2.63
2022-08-22T19:07:32.018Z,2.47
2022-08-22T19:10:27.636Z,2.20
2022-08-22T19:13:15.373Z,2.35
2022-08-22T19:15:54.339Z,2.95
2022-08-22T19:18:37.586Z,2.60
2022-08-22T19:21:48.054Z,2.75
2022-08-22T19:24:20.625Z,2.60
2022-08-22T19:27:18.314Z,3.00
2022-08-22T19:29:44.748Z,2.83
2022-08-22T19:32:46.028Z,2.90
2022-08-22T19:35:40.579Z,2.50
2022-08-22T19:38:10.444Z,2.30
2022-08-22T19:40:46.471Z,2.20
2022-08-22T19:43:36.941Z,2.45
2022-08-22T19:46:10.811Z,2.33
2022-08-22T19:48:47.063Z,2.72
2022-08-22T19:51:21.427Z,2.10
2022-08-22T19:54:16.679Z,3.10
2022-08-22T19:56:58.597Z,2.17
2022-08-22T19:59:50.984Z,2.80
2022-08-22T20:02:24.786Z,2.75
2022-08-22T20:05:16.597Z,2.65
2022-08-22T20:08:08.708Z,1.80
2022-08-22T20:10:41.631Z,2.40
2022-08-22T20:13:22.649Z,2.45
2022-08-22T20:16:23.365Z,2.80
2022-08-22T20:19:08.955Z,2.38
2022-08-22T20:21:42.178Z,2.33
2022-08-22T20:24:19.333Z,2.30
2022-08-22T20:27:12.216Z,2.50
2022-08-22T20:29:39.747Z,2.03
2022-08-22T20:32:06.565Z,2.28
2022-08-22T20:34:38.081Z,2.50
2022-08-22T20:37:29.524Z,2.05
2022-08-22T20:40:51.964Z,2.20
2022-08-22T20:43:10.885Z,2.70
2022-08-22T20:45:47.985Z,2.28
2022-08-22T20:48:15.407Z,2.10
2022-08-22T20:50:41.838Z,2.30
2022-08-22T20:53:15.126Z,2.17
2022-08-22T20:55:53.884Z,2.08
2022-08-22T20:58:25.245Z,2.47
2022-08-22T21:00:56.754Z,2.45
2022-08-22T21:03:38.560Z,1.83
2022-08-22T21:06:20.760Z,2.03
2022-08-22T21:09:08.297Z,2.17
2022-08-22T21:11:40.441Z,2.38
2022-08-22T21:14:25.768Z,1.80
2022-08-22T21:16:53.223Z,1.95
2022-08-22T21:19:25.527Z,2.05
2022-08-22T21:21:52.047Z,2.03
2022-08-22T21:24:18.636Z,2.13
2022-08-22T21:26:45.029Z,2.05
2022-08-22T21:29:14.612Z,1.80
2022-08-22T21:32:04.642Z,2.20
2022-08-22T21:34:43.884Z,2.30
2022-08-22T21:37:36.174Z,2.22
2022-08-22T21:40:08.299Z,2.00
2022-08-22T21:42:44.525Z,1.83
2022-08-22T21:45:27.305Z,1.95
2022-08-22T21:47:53.978Z,1.58
2022-08-22T21:50:20.322Z,2.33
2022-08-22T21:52:55.932Z,2.42
2022-08-22T21:55:35.127Z,2.35
2022-08-22T21:58:06.246Z,2.22
2022-08-22T22:00:48.904Z,2.03
2022-08-22T22:03:21.140Z,2.20
2022-08-22T22:05:50.618Z,1.75
2022-08-22T22:08:17.491Z,2.05
2022-08-22T22:10:46.538Z,2.20
2022-08-22T22:13:13.545Z,2.30
2022-08-22T22:15:46.445Z,2.63
2022-08-22T22:20:41.690Z,3.70
2022-08-22T22:23:09.047Z,3.92
2022-08-22T22:25:41.189Z,3.72
2022-08-22T22:28:16.159Z,3.40
2022-08-22T22:30:44.299Z,3.88
2022-08-22T22:33:11.336Z,3.33
2022-08-22T22:35:39.940Z,3.25
2022-08-22T22:38:07.754Z,3.00
2022-08-22T22:40:35.137Z,2.72
2022-08-22T22:43:01.893Z,3.30
2022-08-22T22:45:28.638Z,3.17
2022-08-22T22:47:55.272Z,2.75
2022-08-22T22:50:21.912Z,2.80
2022-08-22T22:52:48.566Z,2.70
2022-08-22T22:55:24.969Z,2.65
2022-08-22T22:57:58.560Z,2.58
2022-08-22T23:00:29.744Z,2.70
2022-08-22T23:02:59.297Z,2.85
2022-08-22T23:05:25.714Z,3.38
2022-08-22T23:07:52.189Z,2.30
2022-08-22T23:10:21.908Z,3.05
2022-08-22T23:12:48.948Z,2.83
2022-08-22T23:15:16.616Z,2.95
2022-08-22T23:17:43.639Z,3.05
2022-08-22T23:20:10.493Z,2.88
2022-08-22T23:22:36.967Z,3.00
2022-08-22T23:25:04.487Z,3.20
2022-08-22T23:27:31.415Z,2.88
2022-08-22T23:29:58.018Z,2.60
2022-08-22T23:32:24.581Z,2.63
2022-08-22T23:34:51.203Z,2.70
2022-08-22T23:37:20.401Z,2.83
2022-08-22T23:39:47.920Z,2.42
2022-08-22T23:42:16.838Z,2.47
2022-08-22T23:44:45.194Z,2.70
2022-08-22T23:47:13.239Z,3.00
2022-08-22T23:49:40.857Z,2.50
2022-08-22T23:52:09.797Z,2.70
2022-08-22T23:54:36.383Z,2.47
2022-08-22T23:57:11.479Z,2.50
2022-08-22T23:59:46.418Z,2.83
